Levack, Canada
Current Conditions -  °F | °C
As of 12:00 AM on Tuesday 21 Oct 2014 (Local Time) from CYSB Reporting Station
Light Rain Light Rain  
Wind Chill: 27°   Ceiling: 800
Heat Index: 37°   Visibility: 15mi
Dew Point: 36°   Wind: 20mph
Humidity: 93%   Direction: 40°NE
Pressure: 29.89"   Gusts: 30mph
Location:  46.63°N, 81.38°W
Report Text: CYSB 210400Z 04017G26KT 15SM -RA OVC008 03/02 A2989 RMK SF8 SLP134
Loading
Personal Weather Stations






























Interactive Weather Map
Tropical Storm Tracking
New forecast layout! Learn more

10-Day Weather Forecast

Advertisements
Track Severe Weather on mobile